createdAt,value
2023-05-25T00:01:01.887Z,62.33
2023-05-25T00:01:58.620Z,62.52
2023-05-25T00:02:58.599Z,62.52
2023-05-25T00:03:58.619Z,62.52
2023-05-25T00:04:58.402Z,62.52
2023-05-25T00:05:58.316Z,62.33
2023-05-25T00:06:58.261Z,62.33
2023-05-25T00:07:58.182Z,62.33
2023-05-25T00:08:58.123Z,62.33
2023-05-25T00:09:58.068Z,62.52
2023-05-25T00:10:58.055Z,62.33
2023-05-25T00:11:57.977Z,62.52
2023-05-25T00:12:58.020Z,62.33
2023-05-25T00:13:57.813Z,62.52
2023-05-25T00:14:57.714Z,62.49
2023-05-25T00:15:57.662Z,62.40
2023-05-25T00:16:57.624Z,62.78
2023-05-25T00:17:57.533Z,62.33
2023-05-25T00:18:57.711Z,62.52
2023-05-25T00:19:57.415Z,62.30
2023-05-25T00:20:57.312Z,62.52
2023-05-25T00:21:57.260Z,62.78
2023-05-25T00:22:57.199Z,62.68
2023-05-25T00:23:57.116Z,62.59
2023-05-25T00:24:57.058Z,62.78
2023-05-25T00:25:56.989Z,62.59
2023-05-25T00:26:56.922Z,62.68
2023-05-25T00:27:56.851Z,62.78
2023-05-25T00:28:56.801Z,62.49
2023-05-25T00:29:56.719Z,62.59
2023-05-25T00:30:56.669Z,62.49
2023-05-25T00:31:56.602Z,62.68
2023-05-25T00:32:56.629Z,62.49
2023-05-25T00:33:56.464Z,62.87
2023-05-25T00:34:56.376Z,62.49
2023-05-25T00:35:56.303Z,62.49
2023-05-25T00:36:56.270Z,62.40
2023-05-25T00:37:56.178Z,63.07
2023-05-25T00:38:56.102Z,62.49
2023-05-25T00:39:56.052Z,62.78
2023-05-25T00:40:56.017Z,62.78
2023-05-25T00:41:55.927Z,62.78
2023-05-25T00:42:55.867Z,62.78
2023-05-25T00:43:55.797Z,62.87
2023-05-25T00:44:55.728Z,63.07
2023-05-25T00:45:55.643Z,62.97
2023-05-25T00:46:55.606Z,62.68
2023-05-25T00:47:55.548Z,62.87
2023-05-25T00:48:55.457Z,62.87
2023-05-25T00:49:55.368Z,62.87
2023-05-25T00:50:55.300Z,62.87
2023-05-25T00:51:55.231Z,62.87
2023-05-25T00:52:55.166Z,62.87
2023-05-25T00:53:55.105Z,62.78
2023-05-25T00:54:55.052Z,62.68
2023-05-25T00:55:54.973Z,62.97
2023-05-25T00:56:54.913Z,62.68
2023-05-25T00:57:54.825Z,62.87
2023-05-25T00:58:54.818Z,62.97
2023-05-25T00:59:54.706Z,62.97
2023-05-25T01:00:54.630Z,62.87
2023-05-25T01:01:54.629Z,62.87
2023-05-25T01:02:54.602Z,62.78
2023-05-25T01:03:54.567Z,62.97
2023-05-25T01:04:54.365Z,62.87
2023-05-25T01:05:54.324Z,62.84
2023-05-25T01:06:54.252Z,62.49
2023-05-25T01:07:54.181Z,62.78
2023-05-25T01:08:54.107Z,62.68
2023-05-25T01:09:54.023Z,62.87
2023-05-25T01:10:53.977Z,62.75
2023-05-25T01:11:53.895Z,62.78
2023-05-25T01:12:53.827Z,62.75
2023-05-25T01:13:53.812Z,62.75
2023-05-25T01:14:53.710Z,62.84
2023-05-25T01:15:53.646Z,62.75
2023-05-25T01:16:53.662Z,62.84
2023-05-25T01:17:53.559Z,62.65
2023-05-25T01:18:53.433Z,62.75
2023-05-25T01:20:08.971Z,62.65
2023-05-25T01:20:53.355Z,62.75
2023-05-25T01:21:53.284Z,62.84
2023-05-25T01:22:53.175Z,62.84
2023-05-25T01:23:53.096Z,62.75
2023-05-25T01:24:53.025Z,62.65
2023-05-25T01:25:52.966Z,62.84
2023-05-25T01:26:52.890Z,62.84
2023-05-25T01:27:52.835Z,62.94
2023-05-25T01:28:52.750Z,62.75
2023-05-25T01:29:52.672Z,62.55
2023-05-25T01:30:52.642Z,62.75
2023-05-25T01:31:52.573Z,62.84
2023-05-25T01:32:52.498Z,62.75
2023-05-25T01:33:52.429Z,62.65
2023-05-25T01:34:52.336Z,62.75
2023-05-25T01:35:52.285Z,62.65
2023-05-25T01:36:52.213Z,62.84
2023-05-25T01:37:52.198Z,62.84
2023-05-25T01:38:52.085Z,62.84
2023-05-25T01:39:52.009Z,62.65
2023-05-25T01:40:51.942Z,62.75
2023-05-25T01:41:51.871Z,62.75
2023-05-25T01:42:51.823Z,62.55
2023-05-25T01:43:51.771Z,62.65
2023-05-25T01:44:51.662Z,62.84
2023-05-25T01:45:51.629Z,62.65
2023-05-25T01:46:51.540Z,62.94
2023-05-25T01:47:51.548Z,62.84
2023-05-25T01:48:51.476Z,62.46
2023-05-25T01:49:51.341Z,62.84
2023-05-25T01:50:51.264Z,62.46
2023-05-25T01:51:51.217Z,62.84
2023-05-25T01:52:51.127Z,62.84
2023-05-25T01:53:51.065Z,62.65
2023-05-25T01:54:51.007Z,62.84
2023-05-25T01:55:50.936Z,62.46
2023-05-25T01:56:50.878Z,62.55
2023-05-25T01:57:50.798Z,62.27
2023-05-25T01:58:50.809Z,62.55
2023-05-25T01:59:50.657Z,62.65
2023-05-25T02:00:50.615Z,62.65
2023-05-25T02:01:53.106Z,62.55
2023-05-25T02:02:50.493Z,62.37
2023-05-25T02:03:50.434Z,62.55
2023-05-25T02:04:50.404Z,62.65
2023-05-25T02:05:50.298Z,62.37
2023-05-25T02:06:50.180Z,62.37
2023-05-25T02:07:50.129Z,62.55
2023-05-25T02:08:50.068Z,62.65
2023-05-25T02:09:49.974Z,62.65
2023-05-25T02:10:49.927Z,62.84
2023-05-25T02:11:49.866Z,62.84
2023-05-25T02:12:49.822Z,62.75
2023-05-25T02:13:49.730Z,62.84
2023-05-25T02:14:49.674Z,62.84
2023-05-25T02:15:49.630Z,62.46
2023-05-25T02:16:49.519Z,62.94
2023-05-25T02:17:49.491Z,62.46
2023-05-25T02:18:49.415Z,62.55
2023-05-25T02:19:49.314Z,62.84
2023-05-25T02:20:49.297Z,62.94
2023-05-25T02:21:49.181Z,62.65
2023-05-25T02:22:49.135Z,62.65
2023-05-25T02:23:49.081Z,62.65
2023-05-25T02:24:48.972Z,62.75
2023-05-25T02:25:48.908Z,62.84
2023-05-25T02:26:48.853Z,62.84
2023-05-25T02:27:48.769Z,62.84
2023-05-25T02:28:48.734Z,62.46
2023-05-25T02:29:48.663Z,62.55
2023-05-25T02:30:48.611Z,62.37
2023-05-25T02:31:48.611Z,62.55
2023-05-25T02:32:48.469Z,62.65
2023-05-25T02:33:48.394Z,63.13
2023-05-25T02:34:48.329Z,62.81
2023-05-25T02:35:48.226Z,63.13
2023-05-25T02:36:48.194Z,63.13
2023-05-25T02:37:50.298Z,63.13
2023-05-25T02:38:48.027Z,63.13
2023-05-25T02:39:47.969Z,63.23
2023-05-25T02:40:47.892Z,63.10
2023-05-25T02:41:47.818Z,63.13
2023-05-25T02:42:47.768Z,62.94
2023-05-25T02:43:47.680Z,62.52
2023-05-25T02:44:47.617Z,62.52
2023-05-25T02:45:47.550Z,62.37
2023-05-25T02:46:47.587Z,62.43
2023-05-25T02:47:47.508Z,62.52
2023-05-25T02:48:47.382Z,62.62
2023-05-25T02:49:47.300Z,62.34
2023-05-25T02:50:47.245Z,62.52
2023-05-25T02:51:47.157Z,62.34
2023-05-25T02:52:47.140Z,62.52
2023-05-25T02:53:47.004Z,62.52
2023-05-25T02:54:46.945Z,62.52
2023-05-25T02:55:46.976Z,62.71
2023-05-25T02:56:46.816Z,62.52
2023-05-25T02:57:46.745Z,62.34
2023-05-25T02:58:46.706Z,62.52
2023-05-25T02:59:46.706Z,62.52
2023-05-25T03:00:46.567Z,62.62
2023-05-25T03:01:46.477Z,62.52
2023-05-25T03:02:46.433Z,62.52
2023-05-25T03:03:46.354Z,62.52
2023-05-25T03:04:46.256Z,62.34
2023-05-25T03:05:46.252Z,62.62
2023-05-25T03:06:46.147Z,62.62
2023-05-25T03:07:46.101Z,62.52
2023-05-25T03:08:45.997Z,62.62
2023-05-25T03:09:45.932Z,62.43
2023-05-25T03:10:45.855Z,62.52
2023-05-25T03:11:45.805Z,62.52
2023-05-25T03:12:45.769Z,62.52
2023-05-25T03:13:45.679Z,62.43
2023-05-25T03:14:45.583Z,62.81
2023-05-25T03:15:45.670Z,62.91
2023-05-25T03:16:45.511Z,63.10
2023-05-25T03:17:45.435Z,62.71
2023-05-25T03:18:45.314Z,63.20
2023-05-25T03:19:45.261Z,63.10
2023-05-25T03:20:45.194Z,62.81
2023-05-25T03:21:45.130Z,62.71
2023-05-25T03:22:45.066Z,62.81
2023-05-25T03:23:45.028Z,62.71
2023-05-25T03:24:44.907Z,62.81
2023-05-25T03:25:45.219Z,63.10
2023-05-25T03:26:44.784Z,63.10
2023-05-25T03:27:44.721Z,63.10
2023-05-25T03:28:44.655Z,63.00
2023-05-25T03:29:44.574Z,63.10
2023-05-25T03:30:44.538Z,63.00
2023-05-25T03:31:44.448Z,62.34
2023-05-25T03:32:44.384Z,62.91
2023-05-25T03:33:44.296Z,62.52
2023-05-25T03:34:44.240Z,62.34
2023-05-25T03:35:44.407Z,62.91
2023-05-25T03:36:44.116Z,62.62
2023-05-25T03:37:44.060Z,62.52
2023-05-25T03:38:43.971Z,62.62
2023-05-25T03:39:43.895Z,62.24
2023-05-25T03:40:43.823Z,62.62
2023-05-25T03:41:43.759Z,62.52
2023-05-25T03:42:43.693Z,62.62
2023-05-25T03:43:43.628Z,62.81
2023-05-25T03:44:43.564Z,62.81
2023-05-25T03:45:43.622Z,62.75
2023-05-25T03:46:43.655Z,62.65
2023-05-25T03:47:43.464Z,62.84
2023-05-25T03:48:43.286Z,62.84
2023-05-25T03:49:43.216Z,62.84
2023-05-25T03:50:43.154Z,62.71
2023-05-25T03:51:43.091Z,62.84
2023-05-25T03:52:43.044Z,62.75
2023-05-25T03:53:42.953Z,62.84
2023-05-25T03:54:42.933Z,62.84
2023-05-25T03:55:43.063Z,62.84
2023-05-25T03:56:42.767Z,62.84
2023-05-25T03:57:42.683Z,62.84
2023-05-25T03:58:42.671Z,62.65
2023-05-25T03:59:42.555Z,63.03
2023-05-25T04:00:42.486Z,62.55
2023-05-25T04:01:42.399Z,62.55
2023-05-25T04:02:42.407Z,62.65
2023-05-25T04:03:42.442Z,62.65
2023-05-25T04:04:42.247Z,63.03
2023-05-25T04:05:42.209Z,62.55
2023-05-25T04:06:42.076Z,62.65
2023-05-25T04:07:42.003Z,62.65
2023-05-25T04:08:41.926Z,62.65
2023-05-25T04:09:41.876Z,62.46
2023-05-25T04:10:41.788Z,62.46
2023-05-25T04:11:41.728Z,62.94
2023-05-25T04:12:41.656Z,62.37
2023-05-25T04:13:41.586Z,62.84
2023-05-25T04:14:41.531Z,62.94
2023-05-25T04:15:41.507Z,62.94
2023-05-25T04:16:41.531Z,63.13
2023-05-25T04:17:41.345Z,62.94
2023-05-25T04:18:41.260Z,62.55
2023-05-25T04:19:41.203Z,63.07
2023-05-25T04:20:41.149Z,63.16
2023-05-25T04:21:41.053Z,63.07
2023-05-25T04:22:41.005Z,62.78
2023-05-25T04:23:40.955Z,62.68
2023-05-25T04:24:40.886Z,62.49
2023-05-25T04:25:40.804Z,62.59
2023-05-25T04:26:40.749Z,62.40
2023-05-25T04:27:40.678Z,62.49
2023-05-25T04:28:40.609Z,62.78
2023-05-25T04:29:40.535Z,62.49
2023-05-25T04:30:40.473Z,62.49
2023-05-25T04:31:40.499Z,62.49
2023-05-25T04:32:40.444Z,62.49
2023-05-25T04:33:40.372Z,62.68
2023-05-25T04:34:40.187Z,62.68
2023-05-25T04:35:40.112Z,62.68
2023-05-25T04:36:40.069Z,62.52
2023-05-25T04:37:39.965Z,62.33
2023-05-25T04:38:39.914Z,62.62
2023-05-25T04:39:39.851Z,62.04
2023-05-25T04:40:39.783Z,62.04
2023-05-25T04:41:39.693Z,62.43
2023-05-25T04:42:39.698Z,62.04
2023-05-25T04:43:49.255Z,62.24
2023-05-25T04:44:39.516Z,62.14
2023-05-25T04:45:39.480Z,62.04
2023-05-25T04:46:39.421Z,61.76
2023-05-25T04:47:39.303Z,61.95
2023-05-25T04:48:39.257Z,61.95
2023-05-25T04:49:39.162Z,61.98
2023-05-25T04:50:39.101Z,61.98
2023-05-25T04:51:39.061Z,61.98
2023-05-25T04:52:38.998Z,61.88
2023-05-25T04:53:38.894Z,61.69
2023-05-25T04:54:38.868Z,61.69
2023-05-25T04:55:38.764Z,61.88
2023-05-25T04:56:38.697Z,61.60
2023-05-25T04:57:38.627Z,61.69
2023-05-25T04:58:38.557Z,61.69
2023-05-25T04:59:38.524Z,61.79
2023-05-25T05:00:38.462Z,61.60
2023-05-25T05:01:38.422Z,61.91
2023-05-25T05:02:38.381Z,61.91
2023-05-25T05:03:38.269Z,62.11
2023-05-25T05:04:38.168Z,62.11
2023-05-25T05:05:38.107Z,62.11
2023-05-25T05:06:38.066Z,62.11
2023-05-25T05:07:37.963Z,62.01
2023-05-25T05:08:37.907Z,62.01
2023-05-25T05:09:37.852Z,61.63
2023-05-25T05:10:37.782Z,61.54
2023-05-25T05:11:37.702Z,61.76
2023-05-25T05:12:37.667Z,62.01
2023-05-25T05:13:37.565Z,61.85
2023-05-25T05:14:37.503Z,61.94
2023-05-25T05:15:37.443Z,61.66
2023-05-25T05:16:37.407Z,61.66
2023-05-25T05:17:37.494Z,61.66
2023-05-25T05:18:37.285Z,61.28
2023-05-25T05:19:37.212Z,61.37
2023-05-25T05:20:37.210Z,61.11
2023-05-25T05:21:37.031Z,61.50
2023-05-25T05:22:36.971Z,61.11
2023-05-25T05:23:36.922Z,61.11
2023-05-25T05:24:36.853Z,60.93
2023-05-25T05:25:36.783Z,61.24
2023-05-25T05:26:48.130Z,61.05
2023-05-25T05:27:36.648Z,61.05
2023-05-25T05:28:36.604Z,61.24
2023-05-25T05:29:36.510Z,61.24
2023-05-25T05:30:36.462Z,61.27
2023-05-25T05:31:36.443Z,60.50
2023-05-25T05:32:36.322Z,60.31
2023-05-25T05:33:36.280Z,60.50
2023-05-25T05:34:36.211Z,60.89
2023-05-25T05:35:36.126Z,60.53
2023-05-25T05:36:48.749Z,60.82
2023-05-25T05:37:36.026Z,60.72
2023-05-25T05:38:36.711Z,60.53
2023-05-25T05:39:35.860Z,60.82
2023-05-25T05:40:35.811Z,60.75
2023-05-25T05:41:35.745Z,60.57
2023-05-25T05:42:35.670Z,60.85
2023-05-25T05:43:35.618Z,60.69
2023-05-25T05:44:35.540Z,60.50
2023-05-25T05:45:35.461Z,60.60
2023-05-25T05:46:35.450Z,60.40
2023-05-25T05:47:35.374Z,60.53
2023-05-25T05:48:35.293Z,60.63
2023-05-25T05:49:35.222Z,60.63
2023-05-25T05:50:35.148Z,60.43
2023-05-25T05:51:35.090Z,60.17
2023-05-25T05:52:35.062Z,59.89
2023-05-25T05:53:34.979Z,60.08
2023-05-25T05:54:34.907Z,59.69
2023-05-25T05:55:34.842Z,59.99
2023-05-25T05:56:34.776Z,60.01
2023-05-25T05:57:34.708Z,60.01
2023-05-25T05:58:34.636Z,60.21
2023-05-25T05:59:34.572Z,60.21
2023-05-25T06:00:34.540Z,59.72
2023-05-25T06:01:34.436Z,59.56
2023-05-25T06:02:34.450Z,59.66
2023-05-25T06:03:34.394Z,59.85
2023-05-25T06:04:34.308Z,59.97
2023-05-25T06:05:34.508Z,59.97
2023-05-25T06:06:34.172Z,59.11
2023-05-25T06:07:34.074Z,59.20
2023-05-25T06:08:34.012Z,59.23
2023-05-25T06:09:33.941Z,59.62
2023-05-25T06:10:33.884Z,59.07
2023-05-25T06:11:33.860Z,58.97
2023-05-25T06:12:33.780Z,58.69
2023-05-25T06:13:33.728Z,59.00
2023-05-25T06:14:33.695Z,59.20
2023-05-25T06:15:33.590Z,59.03
2023-05-25T06:16:33.550Z,59.42
2023-05-25T06:17:33.502Z,58.77
2023-05-25T06:18:33.388Z,58.90
2023-05-25T06:19:33.404Z,58.70
2023-05-25T06:20:33.334Z,58.42
2023-05-25T06:21:34.038Z,58.64
2023-05-25T06:22:33.184Z,58.57
2023-05-25T06:23:33.107Z,58.57
2023-05-25T06:24:33.024Z,58.40
2023-05-25T06:25:32.963Z,58.53
2023-05-25T06:26:32.897Z,57.86
2023-05-25T06:27:32.853Z,58.27
2023-05-25T06:28:32.777Z,57.79
2023-05-25T06:29:32.741Z,57.53
2023-05-25T06:30:32.647Z,57.94
2023-05-25T06:31:32.591Z,57.45
2023-05-25T06:32:32.580Z,57.09
2023-05-25T06:33:32.460Z,57.09
2023-05-25T06:34:32.413Z,57.22
2023-05-25T06:35:32.375Z,57.06
2023-05-25T06:36:32.370Z,57.25
2023-05-25T06:37:32.234Z,56.98
2023-05-25T06:38:32.199Z,57.11
2023-05-25T06:39:32.216Z,57.11
2023-05-25T06:40:32.036Z,56.56
2023-05-25T06:41:31.995Z,56.65
2023-05-25T06:42:31.924Z,56.59
2023-05-25T06:43:31.880Z,56.61
2023-05-25T06:44:31.804Z,56.54
2023-05-25T06:45:31.794Z,56.25
2023-05-25T06:46:31.840Z,55.99
2023-05-25T06:47:31.731Z,55.99
2023-05-25T06:48:31.572Z,55.82
2023-05-25T06:49:31.536Z,55.65
2023-05-25T06:50:31.451Z,55.75
2023-05-25T06:51:31.414Z,55.38
2023-05-25T06:52:31.353Z,55.41
2023-05-25T06:53:31.288Z,55.22
2023-05-25T06:54:31.233Z,55.63
2023-05-25T06:55:31.178Z,55.27
2023-05-25T06:56:31.116Z,55.18
2023-05-25T06:57:31.088Z,55.69
2023-05-25T06:58:31.021Z,55.69
2023-05-25T06:59:30.958Z,55.13
2023-05-25T07:00:30.885Z,55.06
2023-05-25T07:01:30.867Z,54.57
2023-05-25T07:02:30.855Z,55.08
2023-05-25T07:03:30.725Z,54.99
2023-05-25T07:04:30.707Z,54.33
2023-05-25T07:05:30.658Z,54.55
2023-05-25T07:06:30.569Z,54.65
2023-05-25T07:07:30.495Z,54.38
2023-05-25T07:08:30.452Z,54.50
2023-05-25T07:09:30.400Z,54.63
2023-05-25T07:10:30.332Z,53.87
2023-05-25T07:11:30.272Z,53.97
2023-05-25T07:12:30.225Z,53.80
2023-05-25T07:13:30.164Z,54.02
2023-05-25T07:14:30.145Z,53.73
2023-05-25T07:15:30.095Z,53.75
2023-05-25T07:16:30.049Z,53.58
2023-05-25T07:17:29.957Z,53.68
2023-05-25T07:18:29.884Z,53.61
2023-05-25T07:19:29.866Z,53.51
2023-05-25T07:20:29.854Z,53.74
2023-05-25T07:21:29.719Z,54.16
2023-05-25T07:22:29.700Z,53.39
2023-05-25T07:23:29.647Z,53.19
2023-05-25T07:24:29.575Z,53.32
2023-05-25T07:25:29.552Z,53.64
2023-05-25T07:26:29.484Z,53.37
2023-05-25T07:27:29.386Z,52.98
2023-05-25T07:28:29.336Z,52.80
2023-05-25T07:29:29.378Z,52.63
2023-05-25T07:30:29.241Z,52.93
2023-05-25T07:31:29.207Z,52.66
2023-05-25T07:32:29.126Z,52.76
2023-05-25T07:33:29.065Z,53.05
2023-05-25T07:34:29.014Z,52.58
2023-05-25T07:35:28.983Z,52.81
2023-05-25T07:36:28.908Z,52.64
2023-05-25T07:37:28.846Z,52.54
2023-05-25T07:38:28.791Z,52.19
2023-05-25T07:39:28.756Z,51.79
2023-05-25T07:40:28.671Z,52.41
2023-05-25T07:41:28.624Z,52.22
2023-05-25T07:42:28.587Z,52.12
2023-05-25T07:43:28.520Z,52.14
2023-05-25T07:44:28.513Z,52.04
2023-05-25T07:45:28.432Z,52.17
2023-05-25T07:46:28.499Z,52.09
2023-05-25T07:47:28.469Z,52.19
2023-05-25T07:48:28.252Z,51.70
2023-05-25T07:49:28.246Z,51.57
2023-05-25T07:50:29.840Z,51.47
2023-05-25T07:51:28.119Z,51.62
2023-05-25T07:52:28.070Z,51.97
2023-05-25T07:53:28.013Z,51.75
2023-05-25T07:54:27.951Z,52.88
2023-05-25T07:55:27.884Z,53.03
2023-05-25T07:56:27.821Z,53.47
2023-05-25T07:57:27.779Z,54.18
2023-05-25T07:58:27.779Z,54.72
2023-05-25T07:59:27.695Z,55.26
2023-05-25T08:00:27.656Z,55.89
2023-05-25T08:01:27.581Z,55.66
2023-05-25T08:02:27.560Z,56.59
2023-05-25T08:03:39.826Z,56.96
2023-05-25T08:04:27.486Z,57.39
2023-05-25T08:05:27.341Z,57.66
2023-05-25T08:06:27.270Z,58.12
2023-05-25T08:07:27.221Z,58.48
2023-05-25T08:08:27.168Z,59.23
2023-05-25T08:09:27.112Z,59.01
2023-05-25T08:10:27.052Z,59.38
2023-05-25T08:11:26.992Z,59.96
2023-05-25T08:12:46.178Z,59.64
2023-05-25T08:13:26.879Z,59.25
2023-05-25T08:14:26.868Z,59.80
2023-05-25T08:15:26.787Z,60.26
2023-05-25T08:16:26.791Z,59.84
2023-05-25T08:17:26.675Z,60.23
2023-05-25T08:18:26.600Z,60.52
2023-05-25T08:19:26.566Z,60.39
2023-05-25T08:20:26.566Z,60.59
2023-05-25T08:21:26.413Z,60.95
2023-05-25T08:22:26.354Z,60.66
2023-05-25T08:23:26.314Z,60.56
2023-05-25T08:24:26.249Z,60.82
2023-05-25T08:25:26.209Z,60.63
2023-05-25T08:26:41.394Z,60.82
2023-05-25T08:27:26.101Z,60.89
2023-05-25T08:28:26.048Z,60.70
2023-05-25T08:29:25.970Z,60.60
2023-05-25T08:30:25.901Z,60.79
2023-05-25T08:31:25.919Z,60.89
2023-05-25T08:32:25.860Z,61.18
2023-05-25T08:33:26.266Z,61.35
2023-05-25T08:34:25.667Z,61.05
2023-05-25T08:35:25.592Z,61.35
2023-05-25T08:36:25.549Z,61.12
2023-05-25T08:37:25.483Z,61.22
2023-05-25T08:38:25.439Z,61.41
2023-05-25T08:39:25.394Z,61.41
2023-05-25T08:40:25.297Z,61.00
2023-05-25T08:41:25.263Z,60.80
2023-05-25T08:42:25.186Z,61.19
2023-05-25T08:43:25.125Z,61.35
2023-05-25T08:44:25.103Z,61.25
2023-05-25T08:45:34.851Z,61.45
2023-05-25T08:46:24.958Z,61.35
2023-05-25T08:47:24.927Z,61.32
2023-05-25T08:48:39.577Z,61.13
2023-05-25T08:49:24.847Z,61.42
2023-05-25T08:50:24.707Z,61.22
2023-05-25T08:51:24.657Z,61.42
2023-05-25T08:52:24.581Z,61.32
2023-05-25T08:53:24.549Z,61.29
2023-05-25T08:54:24.477Z,61.39
2023-05-25T08:55:24.435Z,61.19
2023-05-25T08:56:24.380Z,61.29
2023-05-25T08:57:24.295Z,61.19
2023-05-25T08:58:24.234Z,61.39
2023-05-25T08:59:24.188Z,61.19
2023-05-25T09:00:24.163Z,61.29
2023-05-25T09:01:24.084Z,60.88
2023-05-25T09:02:24.066Z,60.88
2023-05-25T09:03:24.017Z,61.26
2023-05-25T09:04:23.911Z,61.36
2023-05-25T09:05:23.861Z,61.46
2023-05-25T09:06:23.789Z,61.94
2023-05-25T09:07:23.691Z,61.75
2023-05-25T09:08:23.639Z,61.94
2023-05-25T09:09:23.578Z,61.55
2023-05-25T09:10:23.542Z,61.55
2023-05-25T09:11:37.285Z,61.85
2023-05-25T09:12:23.415Z,61.94
2023-05-25T09:13:23.408Z,61.94
2023-05-25T09:14:23.277Z,61.82
2023-05-25T09:15:23.231Z,61.72
2023-05-25T09:16:23.214Z,61.91
2023-05-25T09:17:23.103Z,61.91
2023-05-25T09:18:23.155Z,61.91
2023-05-25T09:19:22.998Z,61.85
2023-05-25T09:20:22.966Z,61.55
2023-05-25T09:21:22.900Z,60.97
2023-05-25T09:22:22.820Z,61.52
2023-05-25T09:23:22.770Z,61.17
2023-05-25T09:24:22.690Z,61.14
2023-05-25T09:25:22.643Z,61.14
2023-05-25T09:26:22.570Z,61.24
2023-05-25T09:27:22.526Z,61.14
2023-05-25T09:28:26.975Z,61.33
2023-05-25T09:29:22.398Z,61.43
2023-05-25T09:30:22.337Z,61.33
2023-05-25T09:31:22.281Z,61.43
2023-05-25T09:32:22.358Z,60.94
2023-05-25T09:33:22.190Z,61.14
2023-05-25T09:34:22.109Z,61.04
2023-05-25T09:35:22.046Z,61.24
2023-05-25T09:36:22.165Z,61.43
2023-05-25T09:37:22.093Z,61.43
2023-05-25T09:38:22.338Z,61.52
2023-05-25T09:39:22.031Z,61.43
2023-05-25T09:40:21.784Z,61.43
2023-05-25T09:41:21.702Z,61.43
2023-05-25T09:42:21.661Z,61.43
2023-05-25T09:43:36.539Z,61.04
2023-05-25T09:44:21.511Z,61.04
2023-05-25T09:45:21.496Z,60.82
2023-05-25T09:46:21.460Z,61.24
2023-05-25T09:47:21.392Z,61.33
2023-05-25T09:48:21.268Z,61.33
2023-05-25T09:49:21.237Z,61.14
2023-05-25T09:50:21.175Z,61.24
2023-05-25T09:51:21.096Z,61.43
2023-05-25T09:52:21.032Z,61.24
2023-05-25T09:53:20.975Z,61.43
2023-05-25T09:54:20.896Z,61.30
2023-05-25T09:55:20.863Z,61.14
2023-05-25T09:56:20.803Z,61.62
2023-05-25T09:57:20.758Z,61.24
2023-05-25T09:58:20.689Z,60.85
2023-05-25T09:59:20.674Z,60.94
2023-05-25T10:00:20.570Z,61.52
2023-05-25T10:01:20.540Z,60.94
2023-05-25T10:02:20.430Z,60.94
2023-05-25T10:03:20.358Z,61.14
2023-05-25T10:04:20.337Z,61.04
2023-05-25T10:05:20.253Z,61.24
2023-05-25T10:06:20.198Z,60.30
2023-05-25T10:07:20.142Z,60.97
2023-05-25T10:08:20.128Z,61.04
2023-05-25T10:09:20.087Z,60.78
2023-05-25T10:10:19.954Z,61.04
2023-05-25T10:11:19.888Z,60.85
2023-05-25T10:12:19.850Z,61.04
2023-05-25T10:13:19.820Z,60.85
2023-05-25T10:14:19.733Z,61.04
2023-05-25T10:15:19.656Z,61.14
2023-05-25T10:16:19.648Z,61.04
2023-05-25T10:17:19.600Z,61.14
2023-05-25T10:18:19.477Z,61.04
2023-05-25T10:19:19.411Z,61.04
2023-05-25T10:20:19.395Z,61.14
2023-05-25T10:21:19.312Z,61.04
2023-05-25T10:22:19.235Z,60.94
2023-05-25T10:23:19.211Z,60.85
2023-05-25T10:24:19.159Z,60.85
2023-05-25T10:25:19.091Z,61.33
2023-05-25T10:26:19.058Z,61.14
2023-05-25T10:28:18.879Z,61.17
2023-05-25T10:29:18.821Z,60.88
2023-05-25T10:30:18.766Z,60.78
2023-05-25T10:31:18.710Z,60.78
2023-05-25T10:32:18.633Z,60.68
2023-05-25T10:33:18.637Z,60.68
2023-05-25T10:34:18.507Z,60.58
2023-05-25T10:35:18.461Z,60.39
2023-05-25T10:36:18.410Z,60.58
2023-05-25T10:37:18.328Z,60.52
2023-05-25T10:38:18.282Z,60.32
2023-05-25T10:39:18.211Z,60.74
2023-05-25T10:40:18.158Z,60.45
2023-05-25T10:41:18.097Z,60.35
2023-05-25T10:42:18.030Z,60.25
2023-05-25T10:43:17.979Z,60.64
2023-05-25T10:44:17.904Z,60.55
2023-05-25T10:45:17.868Z,60.48
2023-05-25T10:46:17.823Z,60.28
2023-05-25T10:47:17.803Z,60.19
2023-05-25T10:48:17.691Z,60.02
2023-05-25T10:49:17.719Z,60.31
2023-05-25T10:50:17.612Z,60.35
2023-05-25T10:51:17.582Z,59.95
2023-05-25T10:52:17.451Z,60.11
2023-05-25T10:53:17.383Z,60.21
2023-05-25T10:54:17.345Z,60.46
2023-05-25T10:55:17.279Z,60.20
2023-05-25T10:56:17.236Z,60.16
2023-05-25T10:57:17.156Z,59.90
2023-05-25T10:58:17.117Z,59.77
2023-05-25T10:59:17.042Z,59.75
2023-05-25T11:00:17.034Z,58.96
2023-05-25T11:01:17.043Z,58.58
2023-05-25T11:02:16.979Z,58.08
2023-05-25T11:03:16.809Z,57.88
2023-05-25T11:04:16.836Z,57.95
2023-05-25T11:05:16.705Z,58.12
2023-05-25T11:06:16.675Z,58.78
2023-05-25T11:07:16.625Z,58.47
2023-05-25T11:08:16.545Z,58.06
2023-05-25T11:09:16.505Z,56.50
2023-05-25T11:10:16.502Z,55.82
2023-05-25T11:11:16.406Z,55.24
2023-05-25T11:12:16.345Z,53.96
2023-05-25T11:13:16.281Z,53.23
2023-05-25T11:14:16.233Z,52.94
2023-05-25T11:15:16.172Z,52.34
2023-05-25T11:16:16.160Z,51.75
2023-05-25T11:17:16.156Z,51.42
2023-05-25T11:18:16.017Z,50.71
2023-05-25T11:19:16.058Z,50.38
2023-05-25T11:20:16.052Z,50.38
2023-05-25T11:21:15.888Z,49.55
2023-05-25T11:22:15.840Z,49.64
2023-05-25T11:23:15.779Z,49.18
2023-05-25T11:24:15.731Z,49.33
2023-05-25T11:25:15.689Z,48.57
2023-05-25T11:26:15.662Z,48.03
2023-05-25T11:27:15.578Z,47.85
2023-05-25T11:28:15.538Z,47.77
2023-05-25T11:29:15.529Z,48.22
2023-05-25T11:30:15.500Z,47.66
2023-05-25T11:31:15.466Z,47.39
2023-05-25T11:32:15.369Z,47.42
2023-05-25T11:33:15.375Z,47.26
2023-05-25T11:34:15.248Z,46.89
2023-05-25T11:35:15.231Z,46.83
2023-05-25T11:36:15.182Z,46.45
2023-05-25T11:37:15.147Z,46.19
2023-05-25T11:38:15.069Z,46.31
2023-05-25T11:39:22.404Z,45.94
2023-05-25T11:40:15.451Z,45.65
2023-05-25T11:41:14.959Z,45.50
2023-05-25T11:42:14.907Z,44.80
2023-05-25T11:43:14.884Z,44.82
2023-05-25T11:44:14.851Z,44.56
2023-05-25T11:45:14.859Z,44.47
2023-05-25T11:46:14.833Z,44.29
2023-05-25T11:47:14.744Z,44.62
2023-05-25T11:48:14.763Z,44.64
2023-05-25T11:49:14.605Z,44.14
2023-05-25T11:50:14.556Z,43.85
2023-05-25T11:51:14.511Z,43.67
2023-05-25T11:52:14.479Z,43.71
2023-05-25T11:53:14.420Z,43.48
2023-05-25T11:54:14.382Z,44.53
2023-05-25T11:55:14.398Z,44.64
2023-05-25T11:56:23.700Z,45.19
2023-05-25T11:57:14.243Z,45.74
2023-05-25T11:58:14.208Z,46.86
2023-05-25T11:59:14.216Z,47.53
2023-05-25T12:00:14.130Z,46.76
2023-05-25T12:01:14.086Z,46.39
2023-05-25T12:02:14.088Z,46.53
2023-05-25T12:03:14.595Z,46.27
2023-05-25T12:04:14.067Z,45.68
2023-05-25T12:05:14.031Z,45.42
2023-05-25T12:06:13.871Z,44.92
2023-05-25T12:07:13.812Z,44.53
2023-05-25T12:08:13.813Z,45.60
2023-05-25T12:09:13.744Z,46.41
2023-05-25T12:10:13.731Z,47.65
2023-05-25T12:11:13.668Z,47.06
2023-05-25T12:12:13.608Z,46.96
2023-05-25T12:13:13.548Z,46.41
2023-05-25T12:14:13.513Z,46.45
2023-05-25T12:15:13.458Z,47.36
2023-05-25T12:16:13.439Z,47.38
2023-05-25T12:17:13.423Z,47.54
2023-05-25T12:18:13.429Z,46.87
2023-05-25T12:19:13.283Z,46.30
2023-05-25T12:20:13.367Z,45.63
2023-05-25T12:21:13.188Z,44.85
2023-05-25T12:22:13.199Z,44.38
2023-05-25T12:23:13.090Z,44.10
2023-05-25T12:24:13.063Z,44.53
2023-05-25T12:25:13.019Z,43.43
2023-05-25T12:26:13.363Z,43.43
2023-05-25T12:27:13.968Z,43.34
2023-05-25T12:28:12.899Z,43.05
2023-05-25T12:29:12.852Z,42.75
2023-05-25T12:30:12.779Z,42.97
2023-05-25T12:31:12.760Z,42.99
2023-05-25T12:32:12.696Z,42.50
2023-05-25T12:33:12.681Z,42.40
2023-05-25T12:34:12.609Z,42.50
2023-05-25T12:35:12.555Z,42.60
2023-05-25T12:36:12.540Z,42.29
2023-05-25T12:37:12.476Z,42.32
2023-05-25T12:38:12.431Z,41.90
2023-05-25T12:39:12.373Z,42.09
2023-05-25T12:40:12.333Z,42.19
2023-05-25T12:41:12.289Z,42.58
2023-05-25T12:42:12.256Z,42.66
2023-05-25T12:43:12.286Z,42.46
2023-05-25T12:44:12.169Z,42.65
2023-05-25T12:45:12.178Z,42.95
2023-05-25T12:46:12.223Z,42.73
2023-05-25T12:47:12.004Z,42.90
2023-05-25T12:48:12.147Z,44.12
2023-05-25T12:49:11.921Z,43.44
2023-05-25T12:50:12.062Z,43.04
2023-05-25T12:51:11.863Z,43.24
2023-05-25T12:52:11.786Z,42.83
2023-05-25T12:53:11.753Z,43.10